sensor_id;sensor_type;location;lat;lon;timestamp;P1;durP1;ratioP1;P2;durP2;ratioP2
5961;SDS011;3007;50.770;0.250;2023-02-26T00:01:42;9.67;;;2.90;;
5961;SDS011;3007;50.770;0.250;2023-02-26T00:04:09;7.97;;;2.17;;
5961;SDS011;3007;50.770;0.250;2023-02-26T00:06:38;16.70;;;2.80;;
5961;SDS011;3007;50.770;0.250;2023-02-26T00:09:22;8.30;;;2.53;;
5961;SDS011;3007;50.770;0.250;2023-02-26T00:11:49;8.43;;;2.57;;
5961;SDS011;3007;50.770;0.250;2023-02-26T00:14:18;10.37;;;2.30;;
5961;SDS011;3007;50.770;0.250;2023-02-26T00:16:46;9.07;;;2.37;;
5961;SDS011;3007;50.770;0.250;2023-02-26T00:19:18;8.43;;;2.43;;
5961;SDS011;3007;50.770;0.250;2023-02-26T00:21:48;12.00;;;2.73;;
5961;SDS011;3007;50.770;0.250;2023-02-26T00:24:19;9.67;;;2.23;;
5961;SDS011;3007;50.770;0.250;2023-02-26T00:26:46;11.37;;;2.43;;
5961;SDS011;3007;50.770;0.250;2023-02-26T00:29:18;12.63;;;2.70;;
5961;SDS011;3007;50.770;0.250;2023-02-26T00:31:47;8.17;;;2.57;;
5961;SDS011;3007;50.770;0.250;2023-02-26T00:34:14;10.73;;;2.07;;
5961;SDS011;3007;50.770;0.250;2023-02-26T00:36:43;6.57;;;2.10;;
5961;SDS011;3007;50.770;0.250;2023-02-26T00:39:22;13.20;;;2.97;;
5961;SDS011;3007;50.770;0.250;2023-02-26T00:41:57;10.67;;;2.77;;
5961;SDS011;3007;50.770;0.250;2023-02-26T00:44:34;8.27;;;2.30;;
5961;SDS011;3007;50.770;0.250;2023-02-26T00:47:06;11.37;;;2.63;;
5961;SDS011;3007;50.770;0.250;2023-02-26T00:49:46;10.90;;;2.33;;
5961;SDS011;3007;50.770;0.250;2023-02-26T00:52:25;9.80;;;2.73;;
5961;SDS011;3007;50.770;0.250;2023-02-26T00:55:00;7.43;;;2.23;;
5961;SDS011;3007;50.770;0.250;2023-02-26T00:57:29;7.43;;;2.07;;
5961;SDS011;3007;50.770;0.250;2023-02-26T00:59:59;7.13;;;1.93;;
5961;SDS011;3007;50.770;0.250;2023-02-26T01:02:26;5.23;;;2.13;;
5961;SDS011;3007;50.770;0.250;2023-02-26T01:04:54;15.70;;;2.40;;
5961;SDS011;3007;50.770;0.250;2023-02-26T01:07:21;6.63;;;2.00;;
5961;SDS011;3007;50.770;0.250;2023-02-26T01:09:50;9.67;;;2.03;;
5961;SDS011;3007;50.770;0.250;2023-02-26T01:12:17;12.90;;;2.40;;
5961;SDS011;3007;50.770;0.250;2023-02-26T01:14:44;11.53;;;2.50;;
5961;SDS011;3007;50.770;0.250;2023-02-26T01:17:16;13.43;;;2.43;;
5961;SDS011;3007;50.770;0.250;2023-02-26T01:19:48;12.17;;;2.10;;
5961;SDS011;3007;50.770;0.250;2023-02-26T01:22:20;6.83;;;1.80;;
5961;SDS011;3007;50.770;0.250;2023-02-26T01:24:52;7.30;;;2.33;;
5961;SDS011;3007;50.770;0.250;2023-02-26T01:27:24;8.97;;;2.00;;
5961;SDS011;3007;50.770;0.250;2023-02-26T01:29:52;11.60;;;2.20;;
5961;SDS011;3007;50.770;0.250;2023-02-26T01:32:21;11.60;;;1.83;;
5961;SDS011;3007;50.770;0.250;2023-02-26T01:34:56;12.90;;;2.73;;
5961;SDS011;3007;50.770;0.250;2023-02-26T01:37:28;11.07;;;2.30;;
5961;SDS011;3007;50.770;0.250;2023-02-26T01:40:18;18.77;;;2.43;;
5961;SDS011;3007;50.770;0.250;2023-02-26T01:43:02;13.13;;;1.73;;
5961;SDS011;3007;50.770;0.250;2023-02-26T01:45:34;9.27;;;2.50;;
5961;SDS011;3007;50.770;0.250;2023-02-26T01:48:06;8.13;;;2.20;;
5961;SDS011;3007;50.770;0.250;2023-02-26T01:50:42;9.77;;;2.03;;
5961;SDS011;3007;50.770;0.250;2023-02-26T01:53:17;5.63;;;1.87;;
5961;SDS011;3007;50.770;0.250;2023-02-26T01:55:46;10.47;;;2.03;;
5961;SDS011;3007;50.770;0.250;2023-02-26T01:58:16;11.73;;;2.33;;
5961;SDS011;3007;50.770;0.250;2023-02-26T02:00:45;8.63;;;1.90;;
5961;SDS011;3007;50.770;0.250;2023-02-26T02:03:13;10.63;;;2.03;;
5961;SDS011;3007;50.770;0.250;2023-02-26T02:05:40;6.67;;;1.97;;
5961;SDS011;3007;50.770;0.250;2023-02-26T02:08:09;10.80;;;1.97;;
5961;SDS011;3007;50.770;0.250;2023-02-26T02:10:39;9.73;;;1.90;;
5961;SDS011;3007;50.770;0.250;2023-02-26T02:13:09;9.83;;;2.50;;
5961;SDS011;3007;50.770;0.250;2023-02-26T02:15:45;10.93;;;2.20;;
5961;SDS011;3007;50.770;0.250;2023-02-26T02:18:19;14.00;;;2.30;;
5961;SDS011;3007;50.770;0.250;2023-02-26T02:20:56;9.63;;;2.40;;
5961;SDS011;3007;50.770;0.250;2023-02-26T02:23:38;13.70;;;2.40;;
5961;SDS011;3007;50.770;0.250;2023-02-26T02:26:13;8.47;;;1.83;;
5961;SDS011;3007;50.770;0.250;2023-02-26T02:32:12;12.33;;;2.30;;
5961;SDS011;3007;50.770;0.250;2023-02-26T02:34:44;9.70;;;1.97;;
5961;SDS011;3007;50.770;0.250;2023-02-26T02:37:15;9.80;;;2.50;;
5961;SDS011;3007;50.770;0.250;2023-02-26T02:39:48;5.97;;;2.23;;
5961;SDS011;3007;50.770;0.250;2023-02-26T02:42:19;11.20;;;2.30;;
5961;SDS011;3007;50.770;0.250;2023-02-26T02:44:53;11.60;;;2.60;;
5961;SDS011;3007;50.770;0.250;2023-02-26T02:47:25;10.63;;;2.40;;
5961;SDS011;3007;50.770;0.250;2023-02-26T02:49:56;7.57;;;2.43;;
5961;SDS011;3007;50.770;0.250;2023-02-26T02:52:28;10.70;;;1.93;;
5961;SDS011;3007;50.770;0.250;2023-02-26T02:55:01;7.50;;;2.17;;
5961;SDS011;3007;50.770;0.250;2023-02-26T02:57:32;13.90;;;2.10;;
5961;SDS011;3007;50.770;0.250;2023-02-26T03:00:03;7.00;;;1.80;;
5961;SDS011;3007;50.770;0.250;2023-02-26T03:02:38;10.03;;;2.03;;
5961;SDS011;3007;50.770;0.250;2023-02-26T03:05:10;11.97;;;2.23;;
5961;SDS011;3007;50.770;0.250;2023-02-26T03:07:39;10.93;;;2.20;;
5961;SDS011;3007;50.770;0.250;2023-02-26T03:10:10;10.03;;;2.00;;
5961;SDS011;3007;50.770;0.250;2023-02-26T03:12:38;10.60;;;2.30;;
5961;SDS011;3007;50.770;0.250;2023-02-26T03:15:08;13.20;;;2.60;;
5961;SDS011;3007;50.770;0.250;2023-02-26T03:17:39;16.00;;;3.40;;
5961;SDS011;3007;50.770;0.250;2023-02-26T03:20:15;5.50;;;2.10;;
5961;SDS011;3007;50.770;0.250;2023-02-26T03:22:48;7.27;;;1.77;;
5961;SDS011;3007;50.770;0.250;2023-02-26T03:25:31;8.53;;;1.87;;
5961;SDS011;3007;50.770;0.250;2023-02-26T03:28:06;5.03;;;1.97;;
5961;SDS011;3007;50.770;0.250;2023-02-26T03:30:37;10.50;;;1.67;;
5961;SDS011;3007;50.770;0.250;2023-02-26T03:33:12;5.93;;;1.97;;
5961;SDS011;3007;50.770;0.250;2023-02-26T03:35:44;7.27;;;1.90;;
5961;SDS011;3007;50.770;0.250;2023-02-26T03:38:17;9.07;;;1.93;;
5961;SDS011;3007;50.770;0.250;2023-02-26T03:40:51;8.13;;;2.13;;
5961;SDS011;3007;50.770;0.250;2023-02-26T03:43:22;7.93;;;2.03;;
5961;SDS011;3007;50.770;0.250;2023-02-26T03:45:53;13.83;;;2.33;;
5961;SDS011;3007;50.770;0.250;2023-02-26T03:48:26;7.40;;;2.37;;
5961;SDS011;3007;50.770;0.250;2023-02-26T03:50:56;13.40;;;2.67;;
5961;SDS011;3007;50.770;0.250;2023-02-26T03:53:29;12.17;;;2.27;;
5961;SDS011;3007;50.770;0.250;2023-02-26T03:56:00;9.33;;;1.70;;
5961;SDS011;3007;50.770;0.250;2023-02-26T03:58:31;16.83;;;2.27;;
5961;SDS011;3007;50.770;0.250;2023-02-26T04:01:02;21.50;;;3.00;;
5961;SDS011;3007;50.770;0.250;2023-02-26T04:03:34;8.77;;;1.57;;
5961;SDS011;3007;50.770;0.250;2023-02-26T04:06:08;11.03;;;2.27;;
5961;SDS011;3007;50.770;0.250;2023-02-26T04:08:35;9.17;;;1.63;;
5961;SDS011;3007;50.770;0.250;2023-02-26T04:11:04;12.67;;;1.60;;
5961;SDS011;3007;50.770;0.250;2023-02-26T04:13:33;8.03;;;1.73;;
5961;SDS011;3007;50.770;0.250;2023-02-26T04:16:00;4.33;;;1.13;;
5961;SDS011;3007;50.770;0.250;2023-02-26T04:18:27;11.43;;;1.30;;
5961;SDS011;3007;50.770;0.250;2023-02-26T04:20:56;10.73;;;2.17;;
5961;SDS011;3007;50.770;0.250;2023-02-26T04:23:23;9.47;;;1.90;;
5961;SDS011;3007;50.770;0.250;2023-02-26T04:25:50;12.70;;;2.03;;
5961;SDS011;3007;50.770;0.250;2023-02-26T04:28:17;7.77;;;1.30;;
5961;SDS011;3007;50.770;0.250;2023-02-26T04:30:44;11.67;;;1.83;;
5961;SDS011;3007;50.770;0.250;2023-02-26T04:33:11;9.20;;;1.23;;
5961;SDS011;3007;50.770;0.250;2023-02-26T04:35:39;11.03;;;1.77;;
5961;SDS011;3007;50.770;0.250;2023-02-26T04:38:07;4.97;;;1.40;;
5961;SDS011;3007;50.770;0.250;2023-02-26T04:40:34;8.50;;;1.57;;
5961;SDS011;3007;50.770;0.250;2023-02-26T04:43:01;8.47;;;1.57;;
5961;SDS011;3007;50.770;0.250;2023-02-26T04:45:28;8.10;;;2.13;;
5961;SDS011;3007;50.770;0.250;2023-02-26T04:47:55;6.43;;;1.47;;
5961;SDS011;3007;50.770;0.250;2023-02-26T04:50:22;7.23;;;1.87;;
5961;SDS011;3007;50.770;0.250;2023-02-26T04:52:49;11.93;;;1.70;;
5961;SDS011;3007;50.770;0.250;2023-02-26T04:55:18;12.23;;;1.60;;
5961;SDS011;3007;50.770;0.250;2023-02-26T04:57:45;3.37;;;1.23;;
5961;SDS011;3007;50.770;0.250;2023-02-26T05:00:12;8.53;;;1.73;;
5961;SDS011;3007;50.770;0.250;2023-02-26T05:02:40;4.77;;;1.37;;
5961;SDS011;3007;50.770;0.250;2023-02-26T05:05:07;11.50;;;1.77;;
5961;SDS011;3007;50.770;0.250;2023-02-26T05:07:35;7.10;;;1.43;;
5961;SDS011;3007;50.770;0.250;2023-02-26T05:10:02;5.33;;;1.43;;
5961;SDS011;3007;50.770;0.250;2023-02-26T05:12:30;3.97;;;1.20;;
5961;SDS011;3007;50.770;0.250;2023-02-26T05:14:58;8.27;;;1.97;;
5961;SDS011;3007;50.770;0.250;2023-02-26T05:17:24;13.27;;;1.70;;
5961;SDS011;3007;50.770;0.250;2023-02-26T05:19:51;8.80;;;1.67;;
5961;SDS011;3007;50.770;0.250;2023-02-26T05:22:18;5.37;;;1.60;;
5961;SDS011;3007;50.770;0.250;2023-02-26T05:24:45;5.83;;;1.70;;
5961;SDS011;3007;50.770;0.250;2023-02-26T05:27:12;4.67;;;1.13;;
5961;SDS011;3007;50.770;0.250;2023-02-26T05:29:40;11.20;;;1.63;;
5961;SDS011;3007;50.770;0.250;2023-02-26T05:32:09;12.77;;;1.80;;
5961;SDS011;3007;50.770;0.250;2023-02-26T05:34:36;8.83;;;1.50;;
5961;SDS011;3007;50.770;0.250;2023-02-26T05:37:03;5.40;;;1.43;;
5961;SDS011;3007;50.770;0.250;2023-02-26T05:39:30;9.93;;;1.87;;
5961;SDS011;3007;50.770;0.250;2023-02-26T05:41:57;6.50;;;1.67;;
5961;SDS011;3007;50.770;0.250;2023-02-26T05:44:24;12.10;;;2.17;;
5961;SDS011;3007;50.770;0.250;2023-02-26T05:46:53;12.83;;;1.30;;
5961;SDS011;3007;50.770;0.250;2023-02-26T05:49:20;6.53;;;1.70;;
5961;SDS011;3007;50.770;0.250;2023-02-26T05:51:46;4.33;;;1.03;;
5961;SDS011;3007;50.770;0.250;2023-02-26T05:54:13;4.43;;;0.97;;
5961;SDS011;3007;50.770;0.250;2023-02-26T05:56:40;5.97;;;1.27;;
5961;SDS011;3007;50.770;0.250;2023-02-26T05:59:07;5.60;;;1.33;;
5961;SDS011;3007;50.770;0.250;2023-02-26T06:01:35;6.30;;;1.27;;
5961;SDS011;3007;50.770;0.250;2023-02-26T06:04:04;11.30;;;1.50;;
5961;SDS011;3007;50.770;0.250;2023-02-26T06:06:31;7.03;;;1.63;;
5961;SDS011;3007;50.770;0.250;2023-02-26T06:08:58;6.83;;;1.47;;
5961;SDS011;3007;50.770;0.250;2023-02-26T06:11:26;8.37;;;1.57;;
5961;SDS011;3007;50.770;0.250;2023-02-26T06:13:53;13.63;;;1.43;;
5961;SDS011;3007;50.770;0.250;2023-02-26T06:16:20;5.30;;;1.30;;
5961;SDS011;3007;50.770;0.250;2023-02-26T06:18:47;13.43;;;1.50;;
5961;SDS011;3007;50.770;0.250;2023-02-26T06:21:16;7.00;;;1.53;;
5961;SDS011;3007;50.770;0.250;2023-02-26T06:23:43;7.60;;;1.70;;
5961;SDS011;3007;50.770;0.250;2023-02-26T06:26:11;6.30;;;1.23;;
5961;SDS011;3007;50.770;0.250;2023-02-26T06:28:37;4.37;;;1.47;;
5961;SDS011;3007;50.770;0.250;2023-02-26T06:31:04;8.63;;;1.87;;
5961;SDS011;3007;50.770;0.250;2023-02-26T06:33:31;9.77;;;1.63;;
5961;SDS011;3007;50.770;0.250;2023-02-26T06:35:58;9.60;;;1.60;;
5961;SDS011;3007;50.770;0.250;2023-02-26T06:38:28;10.77;;;1.80;;
5961;SDS011;3007;50.770;0.250;2023-02-26T06:40:55;7.33;;;1.00;;
5961;SDS011;3007;50.770;0.250;2023-02-26T06:43:21;5.93;;;1.47;;
5961;SDS011;3007;50.770;0.250;2023-02-26T06:45:48;11.77;;;2.00;;
5961;SDS011;3007;50.770;0.250;2023-02-26T06:48:15;7.50;;;1.40;;
5961;SDS011;3007;50.770;0.250;2023-02-26T06:50:42;7.80;;;1.30;;
5961;SDS011;3007;50.770;0.250;2023-02-26T06:53:09;5.93;;;1.77;;
5961;SDS011;3007;50.770;0.250;2023-02-26T06:55:40;8.37;;;1.70;;
5961;SDS011;3007;50.770;0.250;2023-02-26T06:58:08;9.90;;;1.60;;
5961;SDS011;3007;50.770;0.250;2023-02-26T07:00:36;3.13;;;1.17;;
5961;SDS011;3007;50.770;0.250;2023-02-26T07:03:04;7.77;;;1.60;;
5961;SDS011;3007;50.770;0.250;2023-02-26T07:05:31;7.67;;;1.27;;
5961;SDS011;3007;50.770;0.250;2023-02-26T07:07:58;8.73;;;1.20;;
5961;SDS011;3007;50.770;0.250;2023-02-26T07:10:25;5.50;;;1.20;;
5961;SDS011;3007;50.770;0.250;2023-02-26T07:12:53;7.10;;;1.50;;
5961;SDS011;3007;50.770;0.250;2023-02-26T07:15:20;9.87;;;1.57;;
5961;SDS011;3007;50.770;0.250;2023-02-26T07:17:47;3.23;;;1.33;;
5961;SDS011;3007;50.770;0.250;2023-02-26T07:20:14;6.90;;;1.60;;
5961;SDS011;3007;50.770;0.250;2023-02-26T07:22:42;5.43;;;1.10;;
5961;SDS011;3007;50.770;0.250;2023-02-26T07:25:09;4.90;;;1.20;;
5961;SDS011;3007;50.770;0.250;2023-02-26T07:27:37;7.13;;;1.70;;
5961;SDS011;3007;50.770;0.250;2023-02-26T07:30:06;2.27;;;1.10;;
5961;SDS011;3007;50.770;0.250;2023-02-26T07:32:34;7.20;;;1.70;;
5961;SDS011;3007;50.770;0.250;2023-02-26T07:35:02;6.87;;;0.80;;
5961;SDS011;3007;50.770;0.250;2023-02-26T07:37:29;3.73;;;1.53;;
5961;SDS011;3007;50.770;0.250;2023-02-26T07:39:56;5.47;;;1.13;;
5961;SDS011;3007;50.770;0.250;2023-02-26T07:42:23;3.03;;;1.07;;
5961;SDS011;3007;50.770;0.250;2023-02-26T07:44:49;4.83;;;1.43;;
5961;SDS011;3007;50.770;0.250;2023-02-26T07:47:18;3.77;;;1.50;;
5961;SDS011;3007;50.770;0.250;2023-02-26T07:49:45;4.83;;;1.63;;
5961;SDS011;3007;50.770;0.250;2023-02-26T07:52:12;9.77;;;1.50;;
5961;SDS011;3007;50.770;0.250;2023-02-26T07:54:38;6.60;;;1.80;;
5961;SDS011;3007;50.770;0.250;2023-02-26T07:57:05;4.40;;;1.17;;
5961;SDS011;3007;50.770;0.250;2023-02-26T07:59:32;6.83;;;1.70;;
5961;SDS011;3007;50.770;0.250;2023-02-26T08:02:00;7.63;;;2.30;;
5961;SDS011;3007;50.770;0.250;2023-02-26T08:04:28;6.57;;;1.77;;
5961;SDS011;3007;50.770;0.250;2023-02-26T08:06:56;8.87;;;2.23;;
5961;SDS011;3007;50.770;0.250;2023-02-26T08:09:25;4.30;;;1.30;;
5961;SDS011;3007;50.770;0.250;2023-02-26T08:11:52;7.20;;;1.67;;
5961;SDS011;3007;50.770;0.250;2023-02-26T08:14:18;4.77;;;2.60;;
5961;SDS011;3007;50.770;0.250;2023-02-26T08:16:45;6.17;;;2.10;;
5961;SDS011;3007;50.770;0.250;2023-02-26T08:19:12;7.17;;;2.13;;
5961;SDS011;3007;50.770;0.250;2023-02-26T08:21:41;3.07;;;1.10;;
5961;SDS011;3007;50.770;0.250;2023-02-26T08:24:09;11.20;;;1.40;;
5961;SDS011;3007;50.770;0.250;2023-02-26T08:26:36;7.20;;;1.10;;
5961;SDS011;3007;50.770;0.250;2023-02-26T08:29:03;2.90;;;1.23;;
5961;SDS011;3007;50.770;0.250;2023-02-26T08:31:30;6.83;;;1.30;;
5961;SDS011;3007;50.770;0.250;2023-02-26T08:33:58;7.30;;;1.33;;
5961;SDS011;3007;50.770;0.250;2023-02-26T08:36:25;1.70;;;1.07;;
5961;SDS011;3007;50.770;0.250;2023-02-26T08:38:53;2.73;;;1.00;;
5961;SDS011;3007;50.770;0.250;2023-02-26T08:41:20;4.73;;;1.27;;
5961;SDS011;3007;50.770;0.250;2023-02-26T08:43:47;5.17;;;1.10;;
5961;SDS011;3007;50.770;0.250;2023-02-26T08:46:15;7.10;;;1.33;;
5961;SDS011;3007;50.770;0.250;2023-02-26T08:48:42;3.23;;;0.80;;
5961;SDS011;3007;50.770;0.250;2023-02-26T08:51:09;3.87;;;1.50;;
5961;SDS011;3007;50.770;0.250;2023-02-26T08:53:35;8.73;;;0.97;;
5961;SDS011;3007;50.770;0.250;2023-02-26T08:56:05;5.10;;;1.40;;
5961;SDS011;3007;50.770;0.250;2023-02-26T08:58:32;6.87;;;1.63;;
5961;SDS011;3007;50.770;0.250;2023-02-26T09:00:59;7.07;;;1.03;;
5961;SDS011;3007;50.770;0.250;2023-02-26T09:03:26;4.05;;;1.13;;
5961;SDS011;3007;50.770;0.250;2023-02-26T09:05:53;8.30;;;1.03;;
5961;SDS011;3007;50.770;0.250;2023-02-26T09:08:20;4.63;;;0.73;;
5961;SDS011;3007;50.770;0.250;2023-02-26T09:10:46;5.57;;;1.00;;
5961;SDS011;3007;50.770;0.250;2023-02-26T09:13:15;4.00;;;1.67;;
5961;SDS011;3007;50.770;0.250;2023-02-26T09:15:42;7.57;;;1.53;;
5961;SDS011;3007;50.770;0.250;2023-02-26T09:18:09;7.67;;;1.23;;
5961;SDS011;3007;50.770;0.250;2023-02-26T09:20:39;3.97;;;1.47;;
5961;SDS011;3007;50.770;0.250;2023-02-26T09:23:06;10.07;;;1.57;;
5961;SDS011;3007;50.770;0.250;2023-02-26T09:25:34;7.17;;;1.10;;
5961;SDS011;3007;50.770;0.250;2023-02-26T09:28:00;3.73;;;0.90;;
5961;SDS011;3007;50.770;0.250;2023-02-26T09:30:29;4.33;;;1.10;;
5961;SDS011;3007;50.770;0.250;2023-02-26T09:32:56;9.13;;;1.73;;
5961;SDS011;3007;50.770;0.250;2023-02-26T09:35:23;2.87;;;0.97;;
5961;SDS011;3007;50.770;0.250;2023-02-26T09:37:50;4.97;;;0.63;;
5961;SDS011;3007;50.770;0.250;2023-02-26T09:40:20;2.70;;;1.27;;
5961;SDS011;3007;50.770;0.250;2023-02-26T09:42:56;3.73;;;1.13;;
5961;SDS011;3007;50.770;0.250;2023-02-26T09:45:34;5.30;;;1.00;;
5961;SDS011;3007;50.770;0.250;2023-02-26T09:48:04;7.40;;;1.30;;
5961;SDS011;3007;50.770;0.250;2023-02-26T09:50:36;3.13;;;0.90;;
5961;SDS011;3007;50.770;0.250;2023-02-26T09:53:08;7.10;;;1.20;;
5961;SDS011;3007;50.770;0.250;2023-02-26T09:55:42;3.77;;;0.83;;
5961;SDS011;3007;50.770;0.250;2023-02-26T09:58:12;4.80;;;1.27;;
5961;SDS011;3007;50.770;0.250;2023-02-26T10:00:46;3.90;;;0.67;;
5961;SDS011;3007;50.770;0.250;2023-02-26T10:03:24;7.90;;;0.93;;
5961;SDS011;3007;50.770;0.250;2023-02-26T10:06:05;7.80;;;1.33;;
5961;SDS011;3007;50.770;0.250;2023-02-26T10:08:42;3.87;;;0.90;;
5961;SDS011;3007;50.770;0.250;2023-02-26T10:11:20;4.93;;;1.00;;
5961;SDS011;3007;50.770;0.250;2023-02-26T10:13:52;3.57;;;0.90;;
5961;SDS011;3007;50.770;0.250;2023-02-26T10:16:25;9.97;;;1.13;;
5961;SDS011;3007;50.770;0.250;2023-02-26T10:18:56;8.97;;;1.53;;
5961;SDS011;3007;50.770;0.250;2023-02-26T10:21:29;5.43;;;1.30;;
5961;SDS011;3007;50.770;0.250;2023-02-26T10:24:03;4.30;;;1.17;;
5961;SDS011;3007;50.770;0.250;2023-02-26T10:26:36;5.47;;;0.97;;
5961;SDS011;3007;50.770;0.250;2023-02-26T10:29:10;4.00;;;0.80;;
5961;SDS011;3007;50.770;0.250;2023-02-26T10:34:31;4.10;;;0.93;;
5961;SDS011;3007;50.770;0.250;2023-02-26T10:37:02;4.73;;;1.00;;
5961;SDS011;3007;50.770;0.250;2023-02-26T10:39:38;3.53;;;0.70;;
5961;SDS011;3007;50.770;0.250;2023-02-26T10:42:14;2.27;;;0.60;;
5961;SDS011;3007;50.770;0.250;2023-02-26T10:44:46;4.23;;;0.90;;
5961;SDS011;3007;50.770;0.250;2023-02-26T10:47:24;3.10;;;0.70;;
5961;SDS011;3007;50.770;0.250;2023-02-26T10:49:58;3.93;;;1.00;;
5961;SDS011;3007;50.770;0.250;2023-02-26T10:52:30;7.93;;;1.07;;
5961;SDS011;3007;50.770;0.250;2023-02-26T10:55:03;2.60;;;0.60;;
5961;SDS011;3007;50.770;0.250;2023-02-26T10:57:39;3.00;;;1.13;;
5961;SDS011;3007;50.770;0.250;2023-02-26T11:00:17;3.27;;;0.90;;
5961;SDS011;3007;50.770;0.250;2023-02-26T11:02:47;4.40;;;0.80;;
5961;SDS011;3007;50.770;0.250;2023-02-26T11:05:18;1.83;;;0.57;;
5961;SDS011;3007;50.770;0.250;2023-02-26T11:07:49;3.73;;;0.87;;
5961;SDS011;3007;50.770;0.250;2023-02-26T11:10:18;5.47;;;0.80;;
5961;SDS011;3007;50.770;0.250;2023-02-26T11:12:51;5.20;;;0.83;;
5961;SDS011;3007;50.770;0.250;2023-02-26T11:15:19;6.63;;;0.97;;
5961;SDS011;3007;50.770;0.250;2023-02-26T11:17:48;3.57;;;0.70;;
5961;SDS011;3007;50.770;0.250;2023-02-26T11:20:23;3.33;;;0.80;;
5961;SDS011;3007;50.770;0.250;2023-02-26T11:22:56;2.97;;;0.73;;
5961;SDS011;3007;50.770;0.250;2023-02-26T11:25:26;4.00;;;0.83;;
5961;SDS011;3007;50.770;0.250;2023-02-26T11:27:59;5.33;;;1.10;;
5961;SDS011;3007;50.770;0.250;2023-02-26T11:30:30;6.40;;;0.70;;
5961;SDS011;3007;50.770;0.250;2023-02-26T11:33:05;7.90;;;1.17;;
5961;SDS011;3007;50.770;0.250;2023-02-26T11:35:41;3.13;;;0.90;;
5961;SDS011;3007;50.770;0.250;2023-02-26T11:38:14;4.27;;;1.10;;
5961;SDS011;3007;50.770;0.250;2023-02-26T11:40:45;2.60;;;0.87;;
5961;SDS011;3007;50.770;0.250;2023-02-26T11:43:15;5.27;;;0.77;;
5961;SDS011;3007;50.770;0.250;2023-02-26T11:45:53;4.57;;;1.00;;
5961;SDS011;3007;50.770;0.250;2023-02-26T11:48:25;4.67;;;1.23;;
5961;SDS011;3007;50.770;0.250;2023-02-26T11:50:58;3.63;;;0.90;;
5961;SDS011;3007;50.770;0.250;2023-02-26T11:53:40;6.30;;;1.33;;
5961;SDS011;3007;50.770;0.250;2023-02-26T11:56:13;6.53;;;1.37;;
5961;SDS011;3007;50.770;0.250;2023-02-26T11:58:45;6.20;;;1.10;;
5961;SDS011;3007;50.770;0.250;2023-02-26T12:01:12;5.80;;;1.20;;
5961;SDS011;3007;50.770;0.250;2023-02-26T12:03:44;4.40;;;0.77;;
5961;SDS011;3007;50.770;0.250;2023-02-26T12:06:15;7.20;;;1.30;;
5961;SDS011;3007;50.770;0.250;2023-02-26T12:08:44;5.27;;;0.90;;
5961;SDS011;3007;50.770;0.250;2023-02-26T12:11:16;4.77;;;0.70;;
5961;SDS011;3007;50.770;0.250;2023-02-26T12:17:22;3.87;;;0.97;;
5961;SDS011;3007;50.770;0.250;2023-02-26T12:20:00;2.47;;;1.07;;
5961;SDS011;3007;50.770;0.250;2023-02-26T12:22:49;2.47;;;0.80;;
5961;SDS011;3007;50.770;0.250;2023-02-26T12:25:35;10.97;;;1.10;;
5961;SDS011;3007;50.770;0.250;2023-02-26T12:34:18;1.83;;;0.80;;
5961;SDS011;3007;50.770;0.250;2023-02-26T12:37:05;9.23;;;2.00;;
5961;SDS011;3007;50.770;0.250;2023-02-26T12:39:59;3.20;;;1.00;;
5961;SDS011;3007;50.770;0.250;2023-02-26T12:42:40;6.70;;;1.27;;
5961;SDS011;3007;50.770;0.250;2023-02-26T12:45:22;3.30;;;1.10;;
5961;SDS011;3007;50.770;0.250;2023-02-26T12:48:02;1.40;;;0.97;;
5961;SDS011;3007;50.770;0.250;2023-02-26T12:50:58;2.33;;;1.37;;
5961;SDS011;3007;50.770;0.250;2023-02-26T12:53:38;3.40;;;0.90;;
5961;SDS011;3007;50.770;0.250;2023-02-26T12:56:19;3.70;;;1.07;;
5961;SDS011;3007;50.770;0.250;2023-02-26T12:59:06;3.90;;;0.80;;
5961;SDS011;3007;50.770;0.250;2023-02-26T13:01:46;3.03;;;0.83;;
5961;SDS011;3007;50.770;0.250;2023-02-26T13:04:34;1.60;;;0.70;;
5961;SDS011;3007;50.770;0.250;2023-02-26T13:07:30;2.70;;;0.80;;
5961;SDS011;3007;50.770;0.250;2023-02-26T13:10:09;1.90;;;0.90;;
5961;SDS011;3007;50.770;0.250;2023-02-26T13:12:45;2.87;;;1.07;;
5961;SDS011;3007;50.770;0.250;2023-02-26T13:15:24;5.10;;;1.17;;
5961;SDS011;3007;50.770;0.250;2023-02-26T13:18:03;2.97;;;0.93;;
5961;SDS011;3007;50.770;0.250;2023-02-26T13:20:35;2.50;;;0.93;;
5961;SDS011;3007;50.770;0.250;2023-02-26T13:23:08;4.60;;;1.10;;
5961;SDS011;3007;50.770;0.250;2023-02-26T13:25:43;3.47;;;1.10;;
5961;SDS011;3007;50.770;0.250;2023-02-26T13:28:19;5.63;;;1.30;;
5961;SDS011;3007;50.770;0.250;2023-02-26T13:30:51;6.20;;;1.17;;
5961;SDS011;3007;50.770;0.250;2023-02-26T13:33:22;7.50;;;1.50;;
5961;SDS011;3007;50.770;0.250;2023-02-26T13:35:53;2.63;;;0.97;;
5961;SDS011;3007;50.770;0.250;2023-02-26T13:38:23;8.20;;;2.13;;
5961;SDS011;3007;50.770;0.250;2023-02-26T13:41:02;6.87;;;1.73;;
5961;SDS011;3007;50.770;0.250;2023-02-26T13:43:38;8.53;;;1.30;;
5961;SDS011;3007;50.770;0.250;2023-02-26T13:46:19;5.17;;;1.10;;
5961;SDS011;3007;50.770;0.250;2023-02-26T13:49:00;4.53;;;1.10;;
5961;SDS011;3007;50.770;0.250;2023-02-26T13:51:33;5.63;;;1.07;;
5961;SDS011;3007;50.770;0.250;2023-02-26T13:54:07;5.93;;;1.20;;
5961;SDS011;3007;50.770;0.250;2023-02-26T13:56:51;5.13;;;1.10;;
5961;SDS011;3007;50.770;0.250;2023-02-26T13:59:24;5.90;;;1.30;;
5961;SDS011;3007;50.770;0.250;2023-02-26T14:05:27;6.33;;;1.77;;
5961;SDS011;3007;50.770;0.250;2023-02-26T14:08:08;4.57;;;1.50;;
5961;SDS011;3007;50.770;0.250;2023-02-26T14:10:45;7.90;;;1.40;;
5961;SDS011;3007;50.770;0.250;2023-02-26T14:13:21;5.47;;;1.37;;
5961;SDS011;3007;50.770;0.250;2023-02-26T14:15:58;3.13;;;1.70;;
5961;SDS011;3007;50.770;0.250;2023-02-26T14:18:30;8.27;;;1.90;;
5961;SDS011;3007;50.770;0.250;2023-02-26T14:24:01;7.03;;;2.00;;
5961;SDS011;3007;50.770;0.250;2023-02-26T14:26:33;4.60;;;1.73;;
5961;SDS011;3007;50.770;0.250;2023-02-26T14:29:12;4.83;;;1.80;;
5961;SDS011;3007;50.770;0.250;2023-02-26T14:31:45;4.50;;;1.80;;
5961;SDS011;3007;50.770;0.250;2023-02-26T14:34:30;3.67;;;1.67;;
5961;SDS011;3007;50.770;0.250;2023-02-26T14:37:03;2.40;;;1.10;;
5961;SDS011;3007;50.770;0.250;2023-02-26T14:39:34;4.03;;;1.03;;
5961;SDS011;3007;50.770;0.250;2023-02-26T14:42:04;6.93;;;1.23;;
5961;SDS011;3007;50.770;0.250;2023-02-26T14:44:37;4.90;;;1.10;;
5961;SDS011;3007;50.770;0.250;2023-02-26T14:47:07;3.23;;;0.90;;
5961;SDS011;3007;50.770;0.250;2023-02-26T14:49:36;4.10;;;1.30;;
5961;SDS011;3007;50.770;0.250;2023-02-26T14:52:09;6.20;;;1.60;;
5961;SDS011;3007;50.770;0.250;2023-02-26T14:58:00;4.93;;;1.30;;
5961;SDS011;3007;50.770;0.250;2023-02-26T15:00:38;3.17;;;1.10;;
5961;SDS011;3007;50.770;0.250;2023-02-26T15:06:21;2.20;;;0.90;;
5961;SDS011;3007;50.770;0.250;2023-02-26T15:09:02;8.40;;;1.63;;
5961;SDS011;3007;50.770;0.250;2023-02-26T15:11:46;11.93;;;1.67;;
5961;SDS011;3007;50.770;0.250;2023-02-26T15:17:42;4.63;;;1.50;;
5961;SDS011;3007;50.770;0.250;2023-02-26T15:20:18;9.30;;;1.70;;
5961;SDS011;3007;50.770;0.250;2023-02-26T15:22:56;5.63;;;1.20;;
5961;SDS011;3007;50.770;0.250;2023-02-26T15:25:37;5.67;;;1.47;;
5961;SDS011;3007;50.770;0.250;2023-02-26T15:28:08;7.40;;;1.30;;
5961;SDS011;3007;50.770;0.250;2023-02-26T15:30:37;8.03;;;2.07;;
5961;SDS011;3007;50.770;0.250;2023-02-26T15:33:11;7.27;;;1.10;;
5961;SDS011;3007;50.770;0.250;2023-02-26T15:35:41;2.93;;;0.80;;
5961;SDS011;3007;50.770;0.250;2023-02-26T15:38:08;7.63;;;1.37;;
5961;SDS011;3007;50.770;0.250;2023-02-26T15:40:35;2.73;;;0.90;;
5961;SDS011;3007;50.770;0.250;2023-02-26T15:43:04;4.20;;;1.10;;
5961;SDS011;3007;50.770;0.250;2023-02-26T15:45:36;3.43;;;1.37;;
5961;SDS011;3007;50.770;0.250;2023-02-26T15:48:07;2.20;;;1.00;;
5961;SDS011;3007;50.770;0.250;2023-02-26T15:50:38;4.07;;;1.00;;
5961;SDS011;3007;50.770;0.250;2023-02-26T15:53:07;7.23;;;1.40;;
5961;SDS011;3007;50.770;0.250;2023-02-26T15:55:40;2.87;;;1.10;;
5961;SDS011;3007;50.770;0.250;2023-02-26T15:58:11;7.10;;;1.23;;
5961;SDS011;3007;50.770;0.250;2023-02-26T16:00:50;5.27;;;1.60;;
5961;SDS011;3007;50.770;0.250;2023-02-26T16:03:23;7.60;;;1.17;;
5961;SDS011;3007;50.770;0.250;2023-02-26T16:05:54;3.03;;;1.03;;
5961;SDS011;3007;50.770;0.250;2023-02-26T16:08:21;2.73;;;1.03;;
5961;SDS011;3007;50.770;0.250;2023-02-26T16:10:48;3.30;;;1.10;;